Alix, Arkansas
Current Conditions -  °F | °C
As of 12:53 AM on Saturday 25 Oct 2014 (Local Time) from KFSM Reporting Station
Haze Haze  
Wind Chill: 62°   Ceiling: Unl
Heat Index: 62°   Visibility: 6mi
Dew Point: 59°   Wind: 0mph
Humidity: 90%   Direction: NA
Pressure: 30.08"   Gusts: NA
Location:  35.43°N, 93.73°W
Report Text: KFSM 250553Z AUTO 00000KT 6SM BR CLR 17/15 A3008 RMK AO2 SLP183 T01670150 10217 20161 402560111 58002
Loading
Personal Weather Stations






























Interactive Weather Map
Tropical Storm Tracking
New forecast layout! Learn more

10-Day Weather Forecast

Advertisements
Track Severe Weather on mobile